createdAt,value
2023-02-18T00:01:32.245Z,20.06
2023-02-18T00:06:30.342Z,19.85
2023-02-18T00:11:31.650Z,19.54
2023-02-18T00:16:28.931Z,19.23
2023-02-18T00:21:29.157Z,19.64
2023-02-18T00:26:27.352Z,19.74
2023-02-18T00:31:26.645Z,19.85
2023-02-18T00:36:27.086Z,19.84
2023-02-18T00:41:26.074Z,19.85
2023-02-18T00:46:26.256Z,19.85
2023-02-18T00:51:23.416Z,19.84
2023-02-18T00:56:22.561Z,19.64
2023-02-18T01:01:23.770Z,19.33
2023-02-18T01:06:21.057Z,19.73
2023-02-18T01:11:20.285Z,19.84
2023-02-18T01:16:19.589Z,20.04
2023-02-18T01:21:19.613Z,20.36
2023-02-18T01:26:18.783Z,20.67
2023-02-18T01:31:18.097Z,20.98
2023-02-18T01:36:17.099Z,21.39
2023-02-18T01:41:16.273Z,21.81
2023-02-18T01:46:14.485Z,22.12
2023-02-18T01:51:14.710Z,22.53
2023-02-18T01:56:12.887Z,22.95
2023-02-18T02:01:12.205Z,23.26
2023-02-18T02:06:11.361Z,23.78
2023-02-18T02:11:11.560Z,24.20
2023-02-18T02:16:11.048Z,24.60
2023-02-18T02:21:10.936Z,24.91
2023-02-18T02:26:10.171Z,25.23
2023-02-18T02:31:07.459Z,25.44
2023-02-18T02:36:07.939Z,25.65
2023-02-18T02:41:05.887Z,25.96
2023-02-18T02:46:05.300Z,26.27
2023-02-18T02:51:04.463Z,26.48
2023-02-18T02:56:03.562Z,26.69
2023-02-18T03:01:03.932Z,27.00
2023-02-18T03:06:04.050Z,27.22
2023-02-18T03:11:02.341Z,27.32
2023-02-18T03:16:00.693Z,27.53
2023-02-18T03:21:01.784Z,27.74
2023-02-18T03:25:59.097Z,27.94
2023-02-18T03:30:58.547Z,28.05
2023-02-18T03:35:57.713Z,28.27
2023-02-18T03:40:57.030Z,28.47
2023-02-18T03:45:56.412Z,28.68
2023-02-18T03:50:55.549Z,28.78
2023-02-18T03:55:54.851Z,29.00
2023-02-18T04:00:56.163Z,29.19
2023-02-18T04:05:53.476Z,29.31
2023-02-18T04:10:54.742Z,29.41
2023-02-18T04:15:53.047Z,29.51
2023-02-18T04:20:51.371Z,29.62
2023-02-18T04:25:51.685Z,29.72
2023-02-18T04:30:50.123Z,29.84
2023-02-18T04:35:49.362Z,29.94
2023-02-18T04:40:48.498Z,30.04
2023-02-18T04:45:47.701Z,30.14
2023-02-18T04:50:48.840Z,30.26
2023-02-18T04:55:46.158Z,30.26
2023-02-18T05:00:46.348Z,30.26
2023-02-18T05:05:46.496Z,30.35
2023-02-18T05:10:43.830Z,30.47
2023-02-18T05:15:43.161Z,30.57
2023-02-18T05:20:42.278Z,30.57
2023-02-18T05:25:44.622Z,30.67
2023-02-18T05:30:40.977Z,30.67
2023-02-18T05:35:41.125Z,30.78
2023-02-18T05:40:40.284Z,30.78
2023-02-18T05:45:38.422Z,30.78
2023-02-18T05:50:37.582Z,30.88
2023-02-18T05:55:36.923Z,30.88
2023-02-18T06:00:36.225Z,30.88
2023-02-18T06:05:35.644Z,30.90
2023-02-18T06:10:35.775Z,31.00
2023-02-18T06:15:34.098Z,31.00
2023-02-18T06:20:34.244Z,31.00
2023-02-18T06:25:34.655Z,31.00
2023-02-18T06:30:31.820Z,31.00
2023-02-18T06:35:30.961Z,31.12
2023-02-18T06:40:30.296Z,31.12
2023-02-18T06:45:30.430Z,31.12
2023-02-18T06:50:28.748Z,31.21
2023-02-18T06:55:27.897Z,31.21
2023-02-18T07:00:29.040Z,31.31
2023-02-18T07:05:27.378Z,31.31
2023-02-18T07:10:26.514Z,31.31
2023-02-18T07:15:24.625Z,31.41
2023-02-18T07:20:25.950Z,31.43
2023-02-18T07:25:25.281Z,31.41
2023-02-18T07:30:23.623Z,24.65
2023-02-18T07:35:23.749Z,21.88
2023-02-18T07:40:22.123Z,20.65
2023-02-18T07:45:20.254Z,20.24
2023-02-18T07:50:19.549Z,21.06
2023-02-18T07:55:18.863Z,20.03
2023-02-18T08:00:18.164Z,19.42
2023-02-18T08:05:16.505Z,21.25
2023-02-18T08:10:18.631Z,20.84
2023-02-18T08:15:16.943Z,20.64
2023-02-18T08:20:16.256Z,20.33
2023-02-18T08:25:27.662Z,20.33
2023-02-18T08:30:13.865Z,20.11
2023-02-18T08:35:13.143Z,19.50
2023-02-18T08:40:13.430Z,19.21
2023-02-18T08:45:11.707Z,19.61
2023-02-18T08:50:11.004Z,19.93
2023-02-18T08:55:10.316Z,20.64
2023-02-18T09:00:09.631Z,20.03
2023-02-18T09:05:09.929Z,19.52
2023-02-18T09:10:08.264Z,19.32
2023-02-18T09:15:06.375Z,19.62
2023-02-18T09:20:08.695Z,19.21
2023-02-18T09:25:06.964Z,19.50
2023-02-18T09:30:08.457Z,19.21
2023-02-18T09:35:04.574Z,19.40
2023-02-18T09:40:05.747Z,19.08
2023-02-18T09:45:03.936Z,18.98
2023-02-18T09:50:04.127Z,19.38
2023-02-18T09:55:02.248Z,19.37
2023-02-18T10:00:01.613Z,19.46
2023-02-18T10:05:00.704Z,19.46
2023-02-18T10:09:59.162Z,19.66
2023-02-18T10:14:58.251Z,19.46
2023-02-18T10:19:57.542Z,19.46
2023-02-18T10:24:56.829Z,19.26
2023-02-18T10:29:55.146Z,19.26
2023-02-18T10:34:57.762Z,19.16
2023-02-18T10:39:54.657Z,19.26
2023-02-18T10:44:54.781Z,19.06
2023-02-18T10:49:53.151Z,19.25
2023-02-18T10:54:54.327Z,19.25
2023-02-18T10:59:52.406Z,19.35
2023-02-18T11:04:49.796Z,19.56
2023-02-18T11:09:49.945Z,19.56
2023-02-18T11:14:48.069Z,19.75
2023-02-18T11:19:49.281Z,19.74
2023-02-18T11:24:46.476Z,19.84
2023-02-18T11:29:46.626Z,19.83
2023-02-18T11:34:45.958Z,19.83
2023-02-18T11:39:46.324Z,19.72
2023-02-18T11:44:44.457Z,19.62
2023-02-18T11:49:44.797Z,19.62
2023-02-18T11:54:44.110Z,19.53
2023-02-18T11:59:42.446Z,19.53
2023-02-18T12:04:41.681Z,19.42
2023-02-18T12:09:40.801Z,19.32
2023-02-18T12:14:40.383Z,19.32
2023-02-18T12:19:39.466Z,21.91
2023-02-18T12:24:38.631Z,22.09
2023-02-18T12:29:39.763Z,23.15
2023-02-18T12:34:37.078Z,25.39
2023-02-18T12:39:37.199Z,21.57
2023-02-18T12:44:35.487Z,24.66
2023-02-18T12:49:35.010Z,22.30
2023-02-18T12:54:35.217Z,26.80
2023-02-18T12:59:36.255Z,25.27
2023-02-18T13:04:33.126Z,25.92
2023-02-18T13:09:34.502Z,27.45
2023-02-18T13:14:31.858Z,25.09
2023-02-18T13:19:30.215Z,27.34
2023-02-18T13:24:29.177Z,27.73
2023-02-18T13:29:29.748Z,26.20
2023-02-18T13:34:27.678Z,26.27
2023-02-18T13:39:27.009Z,27.71
2023-02-18T13:44:27.339Z,28.56
2023-02-18T13:49:26.483Z,28.97
2023-02-18T13:54:27.076Z,28.64
2023-02-18T13:59:24.058Z,30.77
2023-02-18T14:04:23.201Z,31.18
2023-02-18T14:09:22.490Z,32.65
2023-02-18T14:14:22.806Z,32.14
2023-02-18T14:19:21.114Z,32.98
2023-02-18T14:24:21.480Z,31.01
2023-02-18T14:29:19.599Z,33.04
2023-02-18T14:34:18.926Z,33.65
2023-02-18T14:39:19.320Z,34.55
2023-02-18T14:44:18.666Z,33.65
2023-02-18T14:49:17.880Z,33.65
2023-02-18T14:54:15.840Z,34.14
2023-02-18T14:59:17.230Z,33.73
2023-02-18T15:04:15.685Z,34.76
2023-02-18T15:09:13.565Z,34.48
2023-02-18T15:14:13.791Z,33.96
2023-02-18T15:19:13.555Z,33.96
2023-02-18T15:24:12.095Z,33.93
2023-02-18T15:29:11.572Z,32.48
2023-02-18T15:34:08.669Z,28.99
2023-02-18T15:39:09.532Z,32.70
2023-02-18T15:44:07.862Z,34.86
2023-02-18T15:49:10.158Z,35.36
2023-02-18T15:54:06.466Z,36.41
2023-02-18T15:59:05.960Z,36.51
2023-02-18T16:04:09.242Z,34.25
2023-02-18T16:09:04.428Z,35.49
2023-02-18T16:14:04.648Z,36.21
2023-02-18T16:19:06.972Z,36.21
2023-02-18T16:24:02.071Z,36.65
2023-02-18T16:29:01.739Z,36.94
2023-02-18T16:34:01.034Z,37.79
2023-02-18T16:39:02.054Z,37.79
2023-02-18T16:44:00.624Z,38.92
2023-02-18T16:48:58.606Z,38.94
2023-02-18T16:53:57.822Z,38.62
2023-02-18T16:58:57.112Z,38.42
2023-02-18T17:03:56.634Z,38.74
2023-02-18T17:08:55.573Z,37.90
2023-02-18T17:13:54.795Z,38.72
2023-02-18T17:18:54.026Z,37.28
2023-02-18T17:23:55.530Z,34.78
2023-02-18T17:28:52.571Z,33.01
2023-02-18T17:33:51.936Z,35.21
2023-02-18T17:38:51.001Z,36.87
2023-02-18T17:43:51.349Z,39.36
2023-02-18T17:48:49.600Z,39.28
2023-02-18T17:53:48.969Z,40.42
2023-02-18T17:58:49.110Z,41.03
2023-02-18T18:03:48.489Z,41.55
2023-02-18T18:08:46.691Z,42.50
2023-02-18T18:13:44.882Z,42.72
2023-02-18T18:18:44.089Z,42.10
2023-02-18T18:23:44.248Z,40.62
2023-02-18T18:28:42.415Z,41.79
2023-02-18T18:33:42.600Z,42.10
2023-02-18T18:38:41.489Z,42.41
2023-02-18T18:43:40.712Z,42.61
2023-02-18T18:48:40.219Z,42.74
2023-02-18T18:53:53.941Z,43.24
2023-02-18T18:58:40.599Z,42.41
2023-02-18T19:03:39.004Z,43.34
2023-02-18T19:08:37.197Z,42.11
2023-02-18T19:13:36.454Z,42.01
2023-02-18T19:18:36.562Z,41.06
2023-02-18T19:23:35.045Z,44.31
2023-02-18T19:28:35.264Z,44.31
2023-02-18T19:33:32.514Z,41.99
2023-02-18T19:38:31.755Z,42.52
2023-02-18T19:43:33.990Z,41.15
2023-02-18T19:48:31.112Z,39.58
2023-02-18T19:53:30.344Z,39.28
2023-02-18T19:58:30.577Z,39.18
2023-02-18T20:03:28.760Z,39.90
2023-02-18T20:08:27.932Z,39.90
2023-02-18T20:13:27.848Z,39.18
2023-02-18T20:18:27.325Z,39.28
2023-02-18T20:23:24.181Z,39.10
2023-02-18T20:28:23.731Z,39.30
2023-02-18T20:33:24.671Z,40.04
2023-02-18T20:38:23.132Z,39.40
2023-02-18T20:43:23.377Z,38.98
2023-02-18T20:48:21.484Z,39.50
2023-02-18T20:53:21.434Z,40.12
2023-02-18T20:58:20.997Z,39.08
2023-02-18T21:03:20.029Z,39.50
2023-02-18T21:08:20.327Z,39.94
2023-02-18T21:13:18.530Z,39.72
2023-02-18T21:18:16.872Z,39.82
2023-02-18T21:23:16.088Z,36.83
2023-02-18T21:28:16.356Z,39.68
2023-02-18T21:33:15.230Z,41.22
2023-02-18T21:38:15.439Z,40.50
2023-02-18T21:43:13.833Z,39.88
2023-02-18T21:48:12.909Z,40.10
2023-02-18T21:53:11.153Z,39.72
2023-02-18T21:58:10.396Z,40.30
2023-02-18T22:03:09.914Z,38.99
2023-02-18T22:08:08.783Z,40.37
2023-02-18T22:13:09.160Z,40.44
2023-02-18T22:18:07.271Z,41.49
2023-02-18T22:23:08.437Z,40.66
2023-02-18T22:28:07.399Z,41.79
2023-02-18T22:33:04.848Z,40.82
2023-02-18T22:38:07.024Z,40.16
2023-02-18T22:43:04.212Z,34.00
2023-02-18T22:48:02.392Z,28.64
2023-02-18T22:53:02.592Z,28.43
2023-02-18T22:58:00.734Z,27.72
2023-02-18T23:03:00.906Z,27.82
2023-02-18T23:07:58.075Z,26.87
2023-02-18T23:12:59.292Z,25.74
2023-02-18T23:17:57.547Z,26.38
2023-02-18T23:22:56.728Z,25.42
2023-02-18T23:27:57.916Z,26.14
2023-02-18T23:32:55.098Z,26.67
2023-02-18T23:37:54.276Z,26.56
2023-02-18T23:42:53.453Z,26.69
2023-02-18T23:47:53.628Z,27.11
2023-02-18T23:52:51.819Z,26.61
2023-02-18T23:57:50.996Z,27.95
